sensor_id;sensor_type;location;lat;lon;timestamp;P1;durP1;ratioP1;P2;durP2;ratioP2
50851;SDS011;43953;45.508;-122.806;2023-01-13T00:00:12;6.00;;;5.40;;
50851;SDS011;43953;45.508;-122.806;2023-01-13T00:00:44;8.15;;;6.10;;
50851;SDS011;43953;45.508;-122.806;2023-01-13T00:01:17;7.13;;;6.38;;
50851;SDS011;43953;45.508;-122.806;2023-01-13T00:01:51;7.38;;;6.28;;
50851;SDS011;43953;45.508;-122.806;2023-01-13T00:02:23;6.93;;;6.22;;
50851;SDS011;43953;45.508;-122.806;2023-01-13T00:02:54;6.47;;;5.82;;
50851;SDS011;43953;45.508;-122.806;2023-01-13T00:03:26;7.57;;;5.80;;
50851;SDS011;43953;45.508;-122.806;2023-01-13T00:03:58;6.40;;;5.80;;
50851;SDS011;43953;45.508;-122.806;2023-01-13T00:04:31;6.97;;;6.20;;
50851;SDS011;43953;45.508;-122.806;2023-01-13T00:05:03;6.35;;;5.70;;
50851;SDS011;43953;45.508;-122.806;2023-01-13T00:05:36;7.85;;;6.00;;
50851;SDS011;43953;45.508;-122.806;2023-01-13T00:06:08;8.05;;;6.45;;
50851;SDS011;43953;45.508;-122.806;2023-01-13T00:06:43;7.65;;;5.88;;
50851;SDS011;43953;45.508;-122.806;2023-01-13T00:07:15;6.97;;;5.80;;
50851;SDS011;43953;45.508;-122.806;2023-01-13T00:07:47;6.30;;;5.70;;
50851;SDS011;43953;45.508;-122.806;2023-01-13T00:08:19;6.75;;;5.68;;
50851;SDS011;43953;45.508;-122.806;2023-01-13T00:08:51;7.28;;;6.00;;
50851;SDS011;43953;45.508;-122.806;2023-01-13T00:09:23;7.72;;;5.88;;
50851;SDS011;43953;45.508;-122.806;2023-01-13T00:09:55;8.88;;;6.40;;
50851;SDS011;43953;45.508;-122.806;2023-01-13T00:10:27;8.13;;;6.05;;
50851;SDS011;43953;45.508;-122.806;2023-01-13T00:10:58;8.88;;;6.00;;
50851;SDS011;43953;45.508;-122.806;2023-01-13T00:11:30;6.70;;;5.85;;
50851;SDS011;43953;45.508;-122.806;2023-01-13T00:12:03;6.72;;;5.80;;
50851;SDS011;43953;45.508;-122.806;2023-01-13T00:12:41;7.57;;;6.30;;
50851;SDS011;43953;45.508;-122.806;2023-01-13T00:13:14;7.95;;;5.80;;
50851;SDS011;43953;45.508;-122.806;2023-01-13T00:13:46;8.88;;;6.13;;
50851;SDS011;43953;45.508;-122.806;2023-01-13T00:14:21;6.57;;;5.88;;
50851;SDS011;43953;45.508;-122.806;2023-01-13T00:14:56;7.82;;;5.68;;
50851;SDS011;43953;45.508;-122.806;2023-01-13T00:15:28;6.32;;;5.72;;
50851;SDS011;43953;45.508;-122.806;2023-01-13T00:16:01;8.90;;;6.40;;
50851;SDS011;43953;45.508;-122.806;2023-01-13T00:16:35;6.68;;;5.97;;
50851;SDS011;43953;45.508;-122.806;2023-01-13T00:17:08;8.63;;;6.30;;
50851;SDS011;43953;45.508;-122.806;2023-01-13T00:17:40;7.07;;;6.38;;
50851;SDS011;43953;45.508;-122.806;2023-01-13T00:18:11;8.25;;;6.40;;
50851;SDS011;43953;45.508;-122.806;2023-01-13T00:18:44;8.90;;;6.68;;
50851;SDS011;43953;45.508;-122.806;2023-01-13T00:19:16;7.20;;;6.25;;
50851;SDS011;43953;45.508;-122.806;2023-01-13T00:19:48;7.43;;;6.13;;
50851;SDS011;43953;45.508;-122.806;2023-01-13T00:20:20;7.03;;;6.00;;
50851;SDS011;43953;45.508;-122.806;2023-01-13T00:21:36;7.82;;;6.70;;
50851;SDS011;43953;45.508;-122.806;2023-01-13T00:22:17;7.25;;;6.10;;
50851;SDS011;43953;45.508;-122.806;2023-01-13T00:22:49;7.80;;;6.38;;
50851;SDS011;43953;45.508;-122.806;2023-01-13T00:23:20;7.85;;;6.18;;
50851;SDS011;43953;45.508;-122.806;2023-01-13T00:23:54;8.55;;;6.57;;
50851;SDS011;43953;45.508;-122.806;2023-01-13T00:24:26;6.75;;;5.82;;
50851;SDS011;43953;45.508;-122.806;2023-01-13T00:24:59;7.40;;;6.45;;
50851;SDS011;43953;45.508;-122.806;2023-01-13T00:25:34;6.32;;;5.68;;
50851;SDS011;43953;45.508;-122.806;2023-01-13T00:26:07;7.65;;;6.00;;
50851;SDS011;43953;45.508;-122.806;2023-01-13T00:26:40;6.95;;;6.25;;
50851;SDS011;43953;45.508;-122.806;2023-01-13T00:27:12;8.50;;;6.00;;
50851;SDS011;43953;45.508;-122.806;2023-01-13T00:27:44;7.50;;;5.43;;
50851;SDS011;43953;45.508;-122.806;2023-01-13T00:28:16;7.22;;;5.80;;
50851;SDS011;43953;45.508;-122.806;2023-01-13T00:28:47;6.75;;;5.90;;
50851;SDS011;43953;45.508;-122.806;2023-01-13T00:29:19;7.57;;;5.40;;
50851;SDS011;43953;45.508;-122.806;2023-01-13T00:29:51;6.05;;;5.45;;
50851;SDS011;43953;45.508;-122.806;2023-01-13T00:30:23;6.25;;;5.63;;
50851;SDS011;43953;45.508;-122.806;2023-01-13T00:30:55;7.80;;;5.70;;
50851;SDS011;43953;45.508;-122.806;2023-01-13T00:31:34;7.45;;;6.32;;
50851;SDS011;43953;45.508;-122.806;2023-01-13T00:32:06;8.25;;;7.25;;
50851;SDS011;43953;45.508;-122.806;2023-01-13T00:32:37;8.48;;;7.57;;
50851;SDS011;43953;45.508;-122.806;2023-01-13T00:33:09;9.15;;;8.20;;
50851;SDS011;43953;45.508;-122.806;2023-01-13T00:33:41;8.43;;;6.68;;
50851;SDS011;43953;45.508;-122.806;2023-01-13T00:34:13;9.88;;;7.53;;
50851;SDS011;43953;45.508;-122.806;2023-01-13T00:34:45;8.55;;;7.05;;
50851;SDS011;43953;45.508;-122.806;2023-01-13T00:35:17;6.78;;;6.18;;
50851;SDS011;43953;45.508;-122.806;2023-01-13T00:35:58;7.65;;;6.85;;
50851;SDS011;43953;45.508;-122.806;2023-01-13T00:36:31;8.32;;;7.53;;
50851;SDS011;43953;45.508;-122.806;2023-01-13T00:37:03;8.15;;;7.32;;
50851;SDS011;43953;45.508;-122.806;2023-01-13T00:37:35;7.93;;;7.13;;
50851;SDS011;43953;45.508;-122.806;2023-01-13T00:38:08;8.30;;;7.50;;
50851;SDS011;43953;45.508;-122.806;2023-01-13T00:38:40;7.38;;;6.70;;
50851;SDS011;43953;45.508;-122.806;2023-01-13T00:39:12;7.30;;;6.47;;
50851;SDS011;43953;45.508;-122.806;2023-01-13T00:39:45;7.40;;;6.60;;
50851;SDS011;43953;45.508;-122.806;2023-01-13T00:40:16;7.75;;;5.90;;
50851;SDS011;43953;45.508;-122.806;2023-01-13T00:40:57;6.82;;;5.90;;
50851;SDS011;43953;45.508;-122.806;2023-01-13T00:41:30;6.78;;;6.10;;
50851;SDS011;43953;45.508;-122.806;2023-01-13T00:42:22;7.45;;;5.50;;
50851;SDS011;43953;45.508;-122.806;2023-01-13T00:43:12;5.97;;;5.43;;
50851;SDS011;43953;45.508;-122.806;2023-01-13T00:43:52;6.20;;;5.60;;
50851;SDS011;43953;45.508;-122.806;2023-01-13T00:44:24;6.60;;;5.70;;
50851;SDS011;43953;45.508;-122.806;2023-01-13T00:44:56;6.32;;;5.15;;
50851;SDS011;43953;45.508;-122.806;2023-01-13T00:45:28;6.07;;;5.25;;
50851;SDS011;43953;45.508;-122.806;2023-01-13T00:46:00;6.90;;;5.20;;
50851;SDS011;43953;45.508;-122.806;2023-01-13T00:46:32;7.93;;;5.65;;
50851;SDS011;43953;45.508;-122.806;2023-01-13T00:47:03;7.07;;;5.85;;
50851;SDS011;43953;45.508;-122.806;2023-01-13T00:47:35;6.40;;;5.22;;
50851;SDS011;43953;45.508;-122.806;2023-01-13T00:48:07;7.03;;;5.13;;
50851;SDS011;43953;45.508;-122.806;2023-01-13T00:48:39;5.60;;;5.00;;
50851;SDS011;43953;45.508;-122.806;2023-01-13T00:49:10;7.65;;;5.05;;
50851;SDS011;43953;45.508;-122.806;2023-01-13T00:49:43;5.40;;;4.90;;
50851;SDS011;43953;45.508;-122.806;2023-01-13T00:50:14;6.70;;;5.07;;
50851;SDS011;43953;45.508;-122.806;2023-01-13T00:50:53;6.47;;;5.15;;
50851;SDS011;43953;45.508;-122.806;2023-01-13T00:51:29;5.60;;;5.10;;
50851;SDS011;43953;45.508;-122.806;2023-01-13T00:52:00;7.32;;;5.30;;
50851;SDS011;43953;45.508;-122.806;2023-01-13T00:52:32;6.95;;;5.15;;
50851;SDS011;43953;45.508;-122.806;2023-01-13T00:53:04;6.35;;;5.20;;
50851;SDS011;43953;45.508;-122.806;2023-01-13T00:53:37;7.22;;;4.93;;
50851;SDS011;43953;45.508;-122.806;2023-01-13T00:54:10;5.82;;;5.22;;
50851;SDS011;43953;45.508;-122.806;2023-01-13T00:54:42;6.03;;;5.07;;
50851;SDS011;43953;45.508;-122.806;2023-01-13T00:55:13;5.65;;;5.05;;
50851;SDS011;43953;45.508;-122.806;2023-01-13T00:55:45;5.90;;;4.97;;
50851;SDS011;43953;45.508;-122.806;2023-01-13T00:56:18;5.78;;;5.15;;
50851;SDS011;43953;45.508;-122.806;2023-01-13T00:56:52;6.00;;;5.40;;
50851;SDS011;43953;45.508;-122.806;2023-01-13T00:57:23;7.80;;;6.13;;
50851;SDS011;43953;45.508;-122.806;2023-01-13T00:57:55;7.57;;;6.30;;
50851;SDS011;43953;45.508;-122.806;2023-01-13T00:58:33;8.27;;;5.72;;
50851;SDS011;43953;45.508;-122.806;2023-01-13T00:59:06;6.35;;;5.45;;
50851;SDS011;43953;45.508;-122.806;2023-01-13T00:59:42;7.53;;;5.97;;
50851;SDS011;43953;45.508;-122.806;2023-01-13T01:00:13;9.38;;;5.88;;
50851;SDS011;43953;45.508;-122.806;2023-01-13T01:00:45;8.43;;;5.90;;
50851;SDS011;43953;45.508;-122.806;2023-01-13T01:01:19;11.38;;;6.90;;
50851;SDS011;43953;45.508;-122.806;2023-01-13T01:01:52;7.88;;;6.15;;
50851;SDS011;43953;45.508;-122.806;2023-01-13T01:02:24;7.70;;;5.70;;
50851;SDS011;43953;45.508;-122.806;2023-01-13T01:02:56;6.22;;;5.55;;
50851;SDS011;43953;45.508;-122.806;2023-01-13T01:03:27;7.85;;;5.57;;
50851;SDS011;43953;45.508;-122.806;2023-01-13T01:03:59;5.82;;;4.72;;
50851;SDS011;43953;45.508;-122.806;2023-01-13T01:04:31;7.20;;;4.68;;
50851;SDS011;43953;45.508;-122.806;2023-01-13T01:05:03;6.88;;;4.50;;
50851;SDS011;43953;45.508;-122.806;2023-01-13T01:05:35;11.80;;;5.60;;
50851;SDS011;43953;45.508;-122.806;2023-01-13T01:06:07;10.38;;;4.38;;
50851;SDS011;43953;45.508;-122.806;2023-01-13T01:06:42;6.50;;;2.85;;
50851;SDS011;43953;45.508;-122.806;2023-01-13T01:07:14;5.07;;;3.40;;
50851;SDS011;43953;45.508;-122.806;2023-01-13T01:07:46;5.57;;;2.85;;
50851;SDS011;43953;45.508;-122.806;2023-01-13T01:08:17;3.53;;;3.10;;
50851;SDS011;43953;45.508;-122.806;2023-01-13T01:08:49;5.63;;;3.35;;
50851;SDS011;43953;45.508;-122.806;2023-01-13T01:09:22;4.63;;;3.15;;
50851;SDS011;43953;45.508;-122.806;2023-01-13T01:09:54;2.90;;;2.35;;
50851;SDS011;43953;45.508;-122.806;2023-01-13T01:10:25;4.55;;;2.83;;
50851;SDS011;43953;45.508;-122.806;2023-01-13T01:11:03;4.97;;;2.70;;
50851;SDS011;43953;45.508;-122.806;2023-01-13T01:11:37;5.38;;;2.22;;
50851;SDS011;43953;45.508;-122.806;2023-01-13T01:12:09;3.45;;;2.20;;
50851;SDS011;43953;45.508;-122.806;2023-01-13T01:12:41;3.47;;;1.88;;
50851;SDS011;43953;45.508;-122.806;2023-01-13T01:13:13;2.85;;;2.28;;
50851;SDS011;43953;45.508;-122.806;2023-01-13T01:13:47;3.10;;;2.58;;
50851;SDS011;43953;45.508;-122.806;2023-01-13T01:14:21;3.90;;;2.25;;
50851;SDS011;43953;45.508;-122.806;2023-01-13T01:14:53;3.58;;;1.90;;
50851;SDS011;43953;45.508;-122.806;2023-01-13T01:15:25;3.05;;;1.98;;
50851;SDS011;43953;45.508;-122.806;2023-01-13T01:15:56;2.22;;;2.00;;
50851;SDS011;43953;45.508;-122.806;2023-01-13T01:16:29;2.25;;;1.80;;
50851;SDS011;43953;45.508;-122.806;2023-01-13T01:17:02;2.67;;;2.15;;
50851;SDS011;43953;45.508;-122.806;2023-01-13T01:17:34;3.78;;;2.30;;
50851;SDS011;43953;45.508;-122.806;2023-01-13T01:18:06;3.30;;;2.00;;
50851;SDS011;43953;45.508;-122.806;2023-01-13T01:18:40;1.95;;;1.67;;
50851;SDS011;43953;45.508;-122.806;2023-01-13T01:19:13;2.05;;;1.83;;
50851;SDS011;43953;45.508;-122.806;2023-01-13T01:19:45;3.13;;;1.77;;
50851;SDS011;43953;45.508;-122.806;2023-01-13T01:20:16;3.50;;;1.80;;
50851;SDS011;43953;45.508;-122.806;2023-01-13T01:20:48;2.47;;;1.52;;
50851;SDS011;43953;45.508;-122.806;2023-01-13T01:21:20;3.60;;;1.73;;
50851;SDS011;43953;45.508;-122.806;2023-01-13T01:21:54;2.05;;;1.67;;
50851;SDS011;43953;45.508;-122.806;2023-01-13T01:22:25;2.92;;;1.60;;
50851;SDS011;43953;45.508;-122.806;2023-01-13T01:22:57;2.42;;;1.60;;
50851;SDS011;43953;45.508;-122.806;2023-01-13T01:23:29;2.40;;;1.50;;
50851;SDS011;43953;45.508;-122.806;2023-01-13T01:24:02;2.20;;;1.33;;
50851;SDS011;43953;45.508;-122.806;2023-01-13T01:24:34;2.25;;;1.67;;
50851;SDS011;43953;45.508;-122.806;2023-01-13T01:25:06;3.05;;;1.80;;
50851;SDS011;43953;45.508;-122.806;2023-01-13T01:25:38;2.63;;;1.65;;
50851;SDS011;43953;45.508;-122.806;2023-01-13T01:26:14;1.30;;;1.17;;
50851;SDS011;43953;45.508;-122.806;2023-01-13T01:26:48;1.80;;;1.50;;
50851;SDS011;43953;45.508;-122.806;2023-01-13T01:27:19;2.40;;;1.60;;
50851;SDS011;43953;45.508;-122.806;2023-01-13T01:27:51;2.38;;;1.83;;
50851;SDS011;43953;45.508;-122.806;2023-01-13T01:28:23;2.85;;;2.50;;
50851;SDS011;43953;45.508;-122.806;2023-01-13T01:28:55;3.38;;;2.78;;
50851;SDS011;43953;45.508;-122.806;2023-01-13T01:29:27;4.18;;;3.15;;
50851;SDS011;43953;45.508;-122.806;2023-01-13T01:29:59;4.70;;;3.42;;
50851;SDS011;43953;45.508;-122.806;2023-01-13T01:30:30;3.40;;;3.03;;
50851;SDS011;43953;45.508;-122.806;2023-01-13T01:31:10;5.47;;;3.30;;
50851;SDS011;43953;45.508;-122.806;2023-01-13T01:31:44;3.78;;;3.20;;
50851;SDS011;43953;45.508;-122.806;2023-01-13T01:32:16;3.65;;;3.20;;
50851;SDS011;43953;45.508;-122.806;2023-01-13T01:32:47;4.47;;;3.42;;
50851;SDS011;43953;45.508;-122.806;2023-01-13T01:33:19;4.25;;;3.00;;
50851;SDS011;43953;45.508;-122.806;2023-01-13T01:33:52;4.13;;;3.05;;
50851;SDS011;43953;45.508;-122.806;2023-01-13T01:34:25;4.53;;;3.13;;
50851;SDS011;43953;45.508;-122.806;2023-01-13T01:34:56;3.97;;;3.47;;
50851;SDS011;43953;45.508;-122.806;2023-01-13T01:35:28;4.47;;;4.05;;
50851;SDS011;43953;45.508;-122.806;2023-01-13T01:36:00;6.53;;;5.65;;
50851;SDS011;43953;45.508;-122.806;2023-01-13T01:36:33;6.30;;;5.65;;
50851;SDS011;43953;45.508;-122.806;2023-01-13T01:37:06;5.40;;;4.90;;
50851;SDS011;43953;45.508;-122.806;2023-01-13T01:37:38;6.20;;;4.85;;
50851;SDS011;43953;45.508;-122.806;2023-01-13T01:38:09;6.32;;;4.32;;
50851;SDS011;43953;45.508;-122.806;2023-01-13T01:38:41;4.53;;;4.13;;
50851;SDS011;43953;45.508;-122.806;2023-01-13T01:39:13;4.95;;;4.28;;
50851;SDS011;43953;45.508;-122.806;2023-01-13T01:39:45;5.20;;;4.70;;
50851;SDS011;43953;45.508;-122.806;2023-01-13T01:40:16;5.97;;;4.72;;
50851;SDS011;43953;45.508;-122.806;2023-01-13T01:40:48;5.47;;;4.95;;
50851;SDS011;43953;45.508;-122.806;2023-01-13T01:41:21;5.90;;;4.10;;
50851;SDS011;43953;45.508;-122.806;2023-01-13T01:41:54;4.82;;;4.10;;
50851;SDS011;43953;45.508;-122.806;2023-01-13T01:42:44;5.18;;;4.68;;
50851;SDS011;43953;45.508;-122.806;2023-01-13T01:43:51;6.05;;;5.50;;
50851;SDS011;43953;45.508;-122.806;2023-01-13T01:45:47;5.88;;;5.28;;
50851;SDS011;43953;45.508;-122.806;2023-01-13T01:46:22;5.25;;;4.85;;
50851;SDS011;43953;45.508;-122.806;2023-01-13T01:46:54;5.13;;;4.63;;
50851;SDS011;43953;45.508;-122.806;2023-01-13T01:47:27;5.57;;;5.05;;
50851;SDS011;43953;45.508;-122.806;2023-01-13T01:48:01;4.28;;;3.88;;
50851;SDS011;43953;45.508;-122.806;2023-01-13T01:48:36;4.00;;;3.60;;
50851;SDS011;43953;45.508;-122.806;2023-01-13T01:49:30;4.10;;;3.70;;
50851;SDS011;43953;45.508;-122.806;2023-01-13T01:50:05;4.38;;;3.42;;
50851;SDS011;43953;45.508;-122.806;2023-01-13T01:50:37;4.40;;;4.00;;
50851;SDS011;43953;45.508;-122.806;2023-01-13T01:51:10;3.92;;;3.63;;
50851;SDS011;43953;45.508;-122.806;2023-01-13T01:51:56;4.00;;;3.70;;
50851;SDS011;43953;45.508;-122.806;2023-01-13T01:52:38;3.53;;;3.22;;
50851;SDS011;43953;45.508;-122.806;2023-01-13T01:53:15;3.53;;;3.22;;
50851;SDS011;43953;45.508;-122.806;2023-01-13T01:53:49;3.10;;;2.80;;
50851;SDS011;43953;45.508;-122.806;2023-01-13T01:54:24;2.88;;;2.67;;
50851;SDS011;43953;45.508;-122.806;2023-01-13T01:55:42;3.13;;;2.63;;
50851;SDS011;43953;45.508;-122.806;2023-01-13T01:56:14;4.57;;;2.72;;
50851;SDS011;43953;45.508;-122.806;2023-01-13T01:56:49;1.98;;;1.88;;
50851;SDS011;43953;45.508;-122.806;2023-01-13T01:57:32;2.08;;;1.88;;
50851;SDS011;43953;45.508;-122.806;2023-01-13T01:58:12;2.58;;;2.38;;
50851;SDS011;43953;45.508;-122.806;2023-01-13T01:58:51;2.20;;;2.00;;
50851;SDS011;43953;45.508;-122.806;2023-01-13T01:59:24;1.50;;;1.40;;
50851;SDS011;43953;45.508;-122.806;2023-01-13T01:59:57;1.92;;;1.70;;
50851;SDS011;43953;45.508;-122.806;2023-01-13T02:00:30;2.75;;;1.67;;
50851;SDS011;43953;45.508;-122.806;2023-01-13T02:01:02;2.33;;;1.70;;
50851;SDS011;43953;45.508;-122.806;2023-01-13T02:01:34;1.70;;;1.60;;
50851;SDS011;43953;45.508;-122.806;2023-01-13T02:02:07;1.42;;;1.33;;
50851;SDS011;43953;45.508;-122.806;2023-01-13T02:02:39;1.73;;;1.50;;
50851;SDS011;43953;45.508;-122.806;2023-01-13T02:03:14;1.73;;;1.63;;
50851;SDS011;43953;45.508;-122.806;2023-01-13T02:04:22;1.98;;;1.88;;
50851;SDS011;43953;45.508;-122.806;2023-01-13T02:04:48;2.30;;;2.10;;
50851;SDS011;43953;45.508;-122.806;2023-01-13T02:05:22;2.20;;;2.00;;
50851;SDS011;43953;45.508;-122.806;2023-01-13T02:05:54;1.50;;;1.40;;
50851;SDS011;43953;45.508;-122.806;2023-01-13T02:06:27;1.75;;;1.50;;
50851;SDS011;43953;45.508;-122.806;2023-01-13T02:07:01;1.70;;;1.60;;
50851;SDS011;43953;45.508;-122.806;2023-01-13T02:07:33;2.85;;;1.88;;
50851;SDS011;43953;45.508;-122.806;2023-01-13T02:08:09;2.28;;;1.70;;
50851;SDS011;43953;45.508;-122.806;2023-01-13T02:08:42;1.50;;;1.40;;
50851;SDS011;43953;45.508;-122.806;2023-01-13T02:09:14;2.05;;;1.63;;
50851;SDS011;43953;45.508;-122.806;2023-01-13T02:09:47;1.58;;;1.48;;
50851;SDS011;43953;45.508;-122.806;2023-01-13T02:10:20;1.90;;;1.70;;
50851;SDS011;43953;45.508;-122.806;2023-01-13T02:10:55;1.35;;;1.25;;
50851;SDS011;43953;45.508;-122.806;2023-01-13T02:11:28;1.60;;;1.50;;
50851;SDS011;43953;45.508;-122.806;2023-01-13T02:12:20;1.38;;;1.25;;
50851;SDS011;43953;45.508;-122.806;2023-01-13T02:13:03;1.38;;;1.20;;
50851;SDS011;43953;45.508;-122.806;2023-01-13T02:13:38;2.33;;;1.15;;
50851;SDS011;43953;45.508;-122.806;2023-01-13T02:14:10;1.40;;;1.30;;
50851;SDS011;43953;45.508;-122.806;2023-01-13T02:14:42;1.50;;;1.10;;
50851;SDS011;43953;45.508;-122.806;2023-01-13T02:15:15;2.30;;;1.10;;
50851;SDS011;43953;45.508;-122.806;2023-01-13T02:15:59;1.42;;;1.33;;
50851;SDS011;43953;45.508;-122.806;2023-01-13T02:16:46;1.45;;;1.13;;
50851;SDS011;43953;45.508;-122.806;2023-01-13T02:18:41;1.58;;;1.20;;
50851;SDS011;43953;45.508;-122.806;2023-01-13T02:23:26;1.88;;;1.20;;
50851;SDS011;43953;45.508;-122.806;2023-01-13T02:24:48;1.50;;;1.40;;
50851;SDS011;43953;45.508;-122.806;2023-01-13T02:28:17;2.72;;;1.40;;
50851;SDS011;43953;45.508;-122.806;2023-01-13T02:30:06;1.48;;;1.30;;
50851;SDS011;43953;45.508;-122.806;2023-01-13T02:31:07;1.77;;;1.67;;
50851;SDS011;43953;45.508;-122.806;2023-01-13T02:34:04;2.08;;;1.35;;
50851;SDS011;43953;45.508;-122.806;2023-01-13T02:34:50;1.65;;;1.55;;
50851;SDS011;43953;45.508;-122.806;2023-01-13T02:35:36;1.55;;;1.40;;
50851;SDS011;43953;45.508;-122.806;2023-01-13T02:36:52;1.95;;;1.75;;
50851;SDS011;43953;45.508;-122.806;2023-01-13T02:37:34;2.55;;;1.95;;
50851;SDS011;43953;45.508;-122.806;2023-01-13T02:38:10;2.17;;;1.77;;
50851;SDS011;43953;45.508;-122.806;2023-01-13T02:38:49;1.70;;;1.58;;
50851;SDS011;43953;45.508;-122.806;2023-01-13T02:39:28;1.80;;;1.70;;
50851;SDS011;43953;45.508;-122.806;2023-01-13T02:40:45;2.80;;;1.90;;
50851;SDS011;43953;45.508;-122.806;2023-01-13T02:41:23;2.47;;;1.70;;
50851;SDS011;43953;45.508;-122.806;2023-01-13T02:42:29;1.92;;;1.73;;
50851;SDS011;43953;45.508;-122.806;2023-01-13T02:43:33;2.28;;;1.90;;
50851;SDS011;43953;45.508;-122.806;2023-01-13T02:44:29;2.08;;;1.88;;
50851;SDS011;43953;45.508;-122.806;2023-01-13T02:45:46;2.70;;;1.73;;
50851;SDS011;43953;45.508;-122.806;2023-01-13T02:46:24;2.70;;;2.10;;
50851;SDS011;43953;45.508;-122.806;2023-01-13T02:47:02;1.92;;;1.73;;
50851;SDS011;43953;45.508;-122.806;2023-01-13T02:47:38;2.38;;;2.05;;
50851;SDS011;43953;45.508;-122.806;2023-01-13T02:48:14;2.17;;;1.77;;
50851;SDS011;43953;45.508;-122.806;2023-01-13T02:48:47;2.15;;;1.95;;
50851;SDS011;43953;45.508;-122.806;2023-01-13T02:50:36;2.30;;;2.10;;
50851;SDS011;43953;45.508;-122.806;2023-01-13T02:51:15;2.53;;;2.30;;
50851;SDS011;43953;45.508;-122.806;2023-01-13T02:51:51;3.40;;;2.30;;
50851;SDS011;43953;45.508;-122.806;2023-01-13T02:52:30;2.00;;;1.80;;
50851;SDS011;43953;45.508;-122.806;2023-01-13T02:53:33;2.80;;;2.25;;
50851;SDS011;43953;45.508;-122.806;2023-01-13T02:54:20;3.08;;;2.65;;
50851;SDS011;43953;45.508;-122.806;2023-01-13T02:55:00;2.40;;;2.20;;
50851;SDS011;43953;45.508;-122.806;2023-01-13T02:55:42;3.08;;;2.03;;
50851;SDS011;43953;45.508;-122.806;2023-01-13T02:56:16;3.15;;;2.38;;
50851;SDS011;43953;45.508;-122.806;2023-01-13T02:56:50;2.63;;;2.40;;
50851;SDS011;43953;45.508;-122.806;2023-01-13T02:57:26;2.97;;;2.28;;
50851;SDS011;43953;45.508;-122.806;2023-01-13T02:58:02;2.67;;;2.30;;
50851;SDS011;43953;45.508;-122.806;2023-01-13T02:58:37;2.90;;;2.55;;
50851;SDS011;43953;45.508;-122.806;2023-01-13T02:59:11;3.55;;;2.75;;
50851;SDS011;43953;45.508;-122.806;2023-01-13T02:59:44;2.80;;;2.30;;
50851;SDS011;43953;45.508;-122.806;2023-01-13T03:00:16;3.92;;;2.67;;
50851;SDS011;43953;45.508;-122.806;2023-01-13T03:00:49;2.60;;;2.30;;
50851;SDS011;43953;45.508;-122.806;2023-01-13T03:01:24;3.55;;;2.55;;
50851;SDS011;43953;45.508;-122.806;2023-01-13T03:01:56;3.25;;;2.70;;
50851;SDS011;43953;45.508;-122.806;2023-01-13T03:02:29;2.78;;;2.38;;
50851;SDS011;43953;45.508;-122.806;2023-01-13T03:03:01;2.88;;;2.50;;
50851;SDS011;43953;45.508;-122.806;2023-01-13T03:03:33;2.85;;;2.50;;
50851;SDS011;43953;45.508;-122.806;2023-01-13T03:04:10;3.05;;;2.58;;
50851;SDS011;43953;45.508;-122.806;2023-01-13T03:05:21;3.50;;;2.50;;
50851;SDS011;43953;45.508;-122.806;2023-01-13T03:05:55;3.63;;;2.97;;
50851;SDS011;43953;45.508;-122.806;2023-01-13T03:07:08;3.58;;;2.85;;
50851;SDS011;43953;45.508;-122.806;2023-01-13T03:08:52;3.40;;;2.65;;
50851;SDS011;43953;45.508;-122.806;2023-01-13T03:09:18;3.00;;;2.70;;
50851;SDS011;43953;45.508;-122.806;2023-01-13T03:10:52;4.00;;;3.05;;
50851;SDS011;43953;45.508;-122.806;2023-01-13T03:11:27;3.92;;;2.65;;
50851;SDS011;43953;45.508;-122.806;2023-01-13T03:12:31;4.88;;;3.22;;
50851;SDS011;43953;45.508;-122.806;2023-01-13T03:14:35;4.22;;;3.47;;
50851;SDS011;43953;45.508;-122.806;2023-01-13T03:15:31;6.72;;;3.70;;
50851;SDS011;43953;45.508;-122.806;2023-01-13T03:17:48;4.93;;;3.35;;
50851;SDS011;43953;45.508;-122.806;2023-01-13T03:18:34;3.90;;;3.20;;
50851;SDS011;43953;45.508;-122.806;2023-01-13T03:19:24;4.03;;;3.05;;
50851;SDS011;43953;45.508;-122.806;2023-01-13T03:20:55;3.92;;;3.00;;
50851;SDS011;43953;45.508;-122.806;2023-01-13T03:21:34;4.45;;;3.40;;
50851;SDS011;43953;45.508;-122.806;2023-01-13T03:24:21;5.57;;;3.75;;
50851;SDS011;43953;45.508;-122.806;2023-01-13T03:25:03;6.38;;;3.67;;
50851;SDS011;43953;45.508;-122.806;2023-01-13T03:25:46;4.72;;;3.22;;
50851;SDS011;43953;45.508;-122.806;2023-01-13T03:27:28;4.13;;;3.38;;
50851;SDS011;43953;45.508;-122.806;2023-01-13T03:28:24;9.40;;;5.82;;
50851;SDS011;43953;45.508;-122.806;2023-01-13T03:29:08;8.43;;;5.93;;
50851;SDS011;43953;45.508;-122.806;2023-01-13T03:31:04;9.23;;;6.53;;
50851;SDS011;43953;45.508;-122.806;2023-01-13T03:31:45;8.88;;;6.47;;
50851;SDS011;43953;45.508;-122.806;2023-01-13T03:32:42;8.90;;;8.00;;
50851;SDS011;43953;45.508;-122.806;2023-01-13T03:33:28;9.10;;;7.95;;
50851;SDS011;43953;45.508;-122.806;2023-01-13T03:34:08;7.68;;;6.93;;
50851;SDS011;43953;45.508;-122.806;2023-01-13T03:34:49;7.25;;;6.43;;
50851;SDS011;43953;45.508;-122.806;2023-01-13T03:35:29;6.57;;;5.55;;
50851;SDS011;43953;45.508;-122.806;2023-01-13T03:36:05;7.03;;;6.20;;
50851;SDS011;43953;45.508;-122.806;2023-01-13T03:36:41;7.60;;;6.00;;
50851;SDS011;43953;45.508;-122.806;2023-01-13T03:37:18;6.93;;;5.70;;
50851;SDS011;43953;45.508;-122.806;2023-01-13T03:37:58;6.40;;;4.95;;
50851;SDS011;43953;45.508;-122.806;2023-01-13T03:38:42;5.97;;;5.35;;
50851;SDS011;43953;45.508;-122.806;2023-01-13T03:39:20;6.43;;;5.72;;
50851;SDS011;43953;45.508;-122.806;2023-01-13T03:40:01;6.30;;;5.40;;
50851;SDS011;43953;45.508;-122.806;2023-01-13T03:40:48;8.98;;;5.97;;
50851;SDS011;43953;45.508;-122.806;2023-01-13T03:41:59;5.80;;;5.20;;
50851;SDS011;43953;45.508;-122.806;2023-01-13T03:43:09;6.20;;;4.57;;
50851;SDS011;43953;45.508;-122.806;2023-01-13T03:45:50;4.82;;;4.15;;
50851;SDS011;43953;45.508;-122.806;2023-01-13T03:48:22;5.97;;;4.20;;
50851;SDS011;43953;45.508;-122.806;2023-01-13T03:48:57;3.97;;;3.58;;
50851;SDS011;43953;45.508;-122.806;2023-01-13T03:49:41;4.43;;;3.70;;
50851;SDS011;43953;45.508;-122.806;2023-01-13T03:50:39;4.20;;;3.30;;
50851;SDS011;43953;45.508;-122.806;2023-01-13T03:51:22;3.53;;;3.22;;
50851;SDS011;43953;45.508;-122.806;2023-01-13T03:51:58;3.65;;;3.05;;
50851;SDS011;43953;45.508;-122.806;2023-01-13T03:52:39;4.20;;;3.25;;
50851;SDS011;43953;45.508;-122.806;2023-01-13T03:53:51;3.85;;;3.38;;
50851;SDS011;43953;45.508;-122.806;2023-01-13T03:54:27;4.03;;;3.60;;
50851;SDS011;43953;45.508;-122.806;2023-01-13T03:55:15;4.60;;;3.42;;
50851;SDS011;43953;45.508;-122.806;2023-01-13T03:55:52;4.13;;;3.33;;
50851;SDS011;43953;45.508;-122.806;2023-01-13T03:56:40;4.25;;;3.22;;
50851;SDS011;43953;45.508;-122.806;2023-01-13T03:57:16;4.47;;;3.58;;
50851;SDS011;43953;45.508;-122.806;2023-01-13T03:57:54;4.03;;;3.45;;
50851;SDS011;43953;45.508;-122.806;2023-01-13T03:58:32;5.13;;;3.20;;
50851;SDS011;43953;45.508;-122.806;2023-01-13T03:59:10;4.18;;;3.20;;
50851;SDS011;43953;45.508;-122.806;2023-01-13T03:59:47;3.55;;;3.25;;
50851;SDS011;43953;45.508;-122.806;2023-01-13T04:00:26;4.15;;;3.25;;
50851;SDS011;43953;45.508;-122.806;2023-01-13T04:01:10;5.28;;;3.40;;
50851;SDS011;43953;45.508;-122.806;2023-01-13T04:02:21;4.60;;;3.42;;
50851;SDS011;43953;45.508;-122.806;2023-01-13T04:03:14;5.00;;;3.50;;